Terminal Aerodrome Forecast
Issued by NWS

Home | Current Version | Previous Version | Text Only | Print | Product List | Glossary On
Versions: 1 2 3 4 5 6 7 8 9 10 11 12 13 14 15 16 17
000
FTUS44 KBMX 261700
TAFTCL
TAF
KTCL 261738Z 2618/2718 22008KT P6SM SKC
     FM262000 19007KT P6SM BKN150
     FM270300 28008KT P6SM BKN070
     FM271200 32010G20KT P6SM BKN025=

USA.gov is the U.S. government's official web portal to all federal, state and local government web resources and services.